sensor_id;sensor_type;location;lat;lon;timestamp;temperature;humidity
42187;DHT22;27858;51.414;0.018;2022-08-19T00:01:24;19.60;99.90
42187;DHT22;27858;51.414;0.018;2022-08-19T00:04:00;19.60;99.90
42187;DHT22;27858;51.414;0.018;2022-08-19T00:06:28;19.60;99.90
42187;DHT22;27858;51.414;0.018;2022-08-19T00:08:56;19.60;99.90
42187;DHT22;27858;51.414;0.018;2022-08-19T00:11:24;19.60;99.90
42187;DHT22;27858;51.414;0.018;2022-08-19T00:13:52;19.60;99.90
42187;DHT22;27858;51.414;0.018;2022-08-19T00:16:23;19.60;99.90
42187;DHT22;27858;51.414;0.018;2022-08-19T00:18:53;19.60;99.90
42187;DHT22;27858;51.414;0.018;2022-08-19T00:21:20;19.60;99.90
42187;DHT22;27858;51.414;0.018;2022-08-19T00:23:47;19.70;99.90
42187;DHT22;27858;51.414;0.018;2022-08-19T00:26:14;19.70;99.90
42187;DHT22;27858;51.414;0.018;2022-08-19T00:28:41;19.70;99.90
42187;DHT22;27858;51.414;0.018;2022-08-19T00:31:09;19.80;99.90
42187;DHT22;27858;51.414;0.018;2022-08-19T00:33:36;19.70;99.90
42187;DHT22;27858;51.414;0.018;2022-08-19T00:36:07;19.80;99.90
42187;DHT22;27858;51.414;0.018;2022-08-19T00:38:35;19.80;99.90
42187;DHT22;27858;51.414;0.018;2022-08-19T00:41:05;19.80;99.90
42187;DHT22;27858;51.414;0.018;2022-08-19T00:43:32;19.80;99.90
42187;DHT22;27858;51.414;0.018;2022-08-19T00:45:59;19.80;99.90
42187;DHT22;27858;51.414;0.018;2022-08-19T00:48:27;19.70;99.90
42187;DHT22;27858;51.414;0.018;2022-08-19T00:50:55;19.70;99.90
42187;DHT22;27858;51.414;0.018;2022-08-19T00:53:24;19.80;99.90
42187;DHT22;27858;51.414;0.018;2022-08-19T00:55:55;19.80;99.90
42187;DHT22;27858;51.414;0.018;2022-08-19T00:58:26;19.80;99.90
42187;DHT22;27858;51.414;0.018;2022-08-19T01:00:54;19.90;99.90
42187;DHT22;27858;51.414;0.018;2022-08-19T01:03:22;19.90;99.90
42187;DHT22;27858;51.414;0.018;2022-08-19T01:05:50;19.90;99.90
42187;DHT22;27858;51.414;0.018;2022-08-19T01:08:22;19.80;99.90
42187;DHT22;27858;51.414;0.018;2022-08-19T01:10:56;19.80;99.90
42187;DHT22;27858;51.414;0.018;2022-08-19T01:13:26;19.70;99.90
42187;DHT22;27858;51.414;0.018;2022-08-19T01:16:10;19.70;99.90
42187;DHT22;27858;51.414;0.018;2022-08-19T01:18:41;19.70;99.90
42187;DHT22;27858;51.414;0.018;2022-08-19T01:21:36;19.60;99.90
42187;DHT22;27858;51.414;0.018;2022-08-19T01:24:05;19.60;99.90
42187;DHT22;27858;51.414;0.018;2022-08-19T01:26:39;19.60;99.90
42187;DHT22;27858;51.414;0.018;2022-08-19T01:29:08;19.60;99.90
42187;DHT22;27858;51.414;0.018;2022-08-19T01:31:35;19.60;99.90
42187;DHT22;27858;51.414;0.018;2022-08-19T01:34:03;19.60;99.90
42187;DHT22;27858;51.414;0.018;2022-08-19T01:39:00;19.60;99.90
42187;DHT22;27858;51.414;0.018;2022-08-19T01:41:27;19.60;99.90
42187;DHT22;27858;51.414;0.018;2022-08-19T01:43:54;19.70;99.90
42187;DHT22;27858;51.414;0.018;2022-08-19T01:46:42;19.70;99.90
42187;DHT22;27858;51.414;0.018;2022-08-19T01:49:10;19.70;99.90
42187;DHT22;27858;51.414;0.018;2022-08-19T01:51:37;19.80;99.90
42187;DHT22;27858;51.414;0.018;2022-08-19T01:54:07;19.80;99.90
42187;DHT22;27858;51.414;0.018;2022-08-19T01:56:34;19.70;99.90
42187;DHT22;27858;51.414;0.018;2022-08-19T01:59:05;19.70;99.90
42187;DHT22;27858;51.414;0.018;2022-08-19T02:01:33;19.70;99.90
42187;DHT22;27858;51.414;0.018;2022-08-19T02:04:02;19.70;99.90
42187;DHT22;27858;51.414;0.018;2022-08-19T02:06:29;19.70;99.90
42187;DHT22;27858;51.414;0.018;2022-08-19T02:08:56;19.70;99.90
42187;DHT22;27858;51.414;0.018;2022-08-19T02:11:29;19.70;99.90
42187;DHT22;27858;51.414;0.018;2022-08-19T02:14:02;19.80;99.90
42187;DHT22;27858;51.414;0.018;2022-08-19T02:16:30;19.80;99.90
42187;DHT22;27858;51.414;0.018;2022-08-19T02:18:57;19.70;99.90
42187;DHT22;27858;51.414;0.018;2022-08-19T02:21:27;19.80;99.90
42187;DHT22;27858;51.414;0.018;2022-08-19T02:23:54;19.80;99.90
42187;DHT22;27858;51.414;0.018;2022-08-19T02:26:22;19.80;99.90
42187;DHT22;27858;51.414;0.018;2022-08-19T02:28:49;19.80;99.90
42187;DHT22;27858;51.414;0.018;2022-08-19T02:31:18;19.80;99.90
42187;DHT22;27858;51.414;0.018;2022-08-19T02:33:46;19.80;99.90
42187;DHT22;27858;51.414;0.018;2022-08-19T02:36:14;19.90;99.90
42187;DHT22;27858;51.414;0.018;2022-08-19T02:38:46;19.80;99.90
42187;DHT22;27858;51.414;0.018;2022-08-19T02:41:27;19.90;99.90
42187;DHT22;27858;51.414;0.018;2022-08-19T02:43:55;19.90;99.90
42187;DHT22;27858;51.414;0.018;2022-08-19T02:46:46;20.00;99.90
42187;DHT22;27858;51.414;0.018;2022-08-19T02:49:13;19.90;99.90
42187;DHT22;27858;51.414;0.018;2022-08-19T02:51:44;19.90;99.90
42187;DHT22;27858;51.414;0.018;2022-08-19T02:54:13;20.00;99.90
42187;DHT22;27858;51.414;0.018;2022-08-19T02:56:41;20.00;99.90
42187;DHT22;27858;51.414;0.018;2022-08-19T02:59:08;19.90;99.90
42187;DHT22;27858;51.414;0.018;2022-08-19T03:01:38;20.00;99.90
42187;DHT22;27858;51.414;0.018;2022-08-19T03:04:08;20.00;99.90
42187;DHT22;27858;51.414;0.018;2022-08-19T03:06:38;20.00;99.90
42187;DHT22;27858;51.414;0.018;2022-08-19T03:09:05;20.00;99.90
42187;DHT22;27858;51.414;0.018;2022-08-19T03:11:32;20.00;99.90
42187;DHT22;27858;51.414;0.018;2022-08-19T03:14:00;20.00;99.90
42187;DHT22;27858;51.414;0.018;2022-08-19T03:16:30;19.90;99.90
42187;DHT22;27858;51.414;0.018;2022-08-19T03:19:00;19.90;99.90
42187;DHT22;27858;51.414;0.018;2022-08-19T03:21:31;19.90;99.90
42187;DHT22;27858;51.414;0.018;2022-08-19T03:24:04;19.90;99.90
42187;DHT22;27858;51.414;0.018;2022-08-19T03:26:32;19.90;99.90
42187;DHT22;27858;51.414;0.018;2022-08-19T03:29:02;19.90;99.90
42187;DHT22;27858;51.414;0.018;2022-08-19T03:31:31;19.90;99.90
42187;DHT22;27858;51.414;0.018;2022-08-19T03:34:20;20.00;99.90
42187;DHT22;27858;51.414;0.018;2022-08-19T03:36:47;19.90;99.90
42187;DHT22;27858;51.414;0.018;2022-08-19T03:39:14;19.90;99.90
42187;DHT22;27858;51.414;0.018;2022-08-19T03:41:44;19.90;99.90
42187;DHT22;27858;51.414;0.018;2022-08-19T03:44:17;19.90;99.90
42187;DHT22;27858;51.414;0.018;2022-08-19T03:46:53;19.80;99.90
42187;DHT22;27858;51.414;0.018;2022-08-19T03:49:21;19.70;99.90
42187;DHT22;27858;51.414;0.018;2022-08-19T03:51:55;19.70;99.90
42187;DHT22;27858;51.414;0.018;2022-08-19T03:54:24;19.60;99.90
42187;DHT22;27858;51.414;0.018;2022-08-19T03:56:53;19.50;99.90
42187;DHT22;27858;51.414;0.018;2022-08-19T03:59:28;19.50;99.90
42187;DHT22;27858;51.414;0.018;2022-08-19T04:01:56;19.40;99.90
42187;DHT22;27858;51.414;0.018;2022-08-19T04:04:24;19.50;99.90
42187;DHT22;27858;51.414;0.018;2022-08-19T04:06:55;19.40;99.90
42187;DHT22;27858;51.414;0.018;2022-08-19T04:09:22;19.30;99.90
42187;DHT22;27858;51.414;0.018;2022-08-19T04:11:51;19.30;99.90
42187;DHT22;27858;51.414;0.018;2022-08-19T04:14:26;19.40;99.90
42187;DHT22;27858;51.414;0.018;2022-08-19T04:16:55;19.30;99.90
42187;DHT22;27858;51.414;0.018;2022-08-19T04:19:22;19.40;99.90
42187;DHT22;27858;51.414;0.018;2022-08-19T04:21:53;19.30;99.90
42187;DHT22;27858;51.414;0.018;2022-08-19T04:24:21;19.50;99.90
42187;DHT22;27858;51.414;0.018;2022-08-19T04:26:48;19.30;99.90
42187;DHT22;27858;51.414;0.018;2022-08-19T04:29:20;19.40;99.90
42187;DHT22;27858;51.414;0.018;2022-08-19T04:31:48;19.40;99.90
42187;DHT22;27858;51.414;0.018;2022-08-19T04:34:17;19.50;99.90
42187;DHT22;27858;51.414;0.018;2022-08-19T04:36:45;19.30;99.90
42187;DHT22;27858;51.414;0.018;2022-08-19T04:39:15;19.40;99.90
42187;DHT22;27858;51.414;0.018;2022-08-19T04:41:43;19.40;99.90
42187;DHT22;27858;51.414;0.018;2022-08-19T04:44:33;19.40;99.90
42187;DHT22;27858;51.414;0.018;2022-08-19T04:47:02;19.50;99.90
42187;DHT22;27858;51.414;0.018;2022-08-19T04:49:37;19.40;99.90
42187;DHT22;27858;51.414;0.018;2022-08-19T04:52:04;19.40;99.90
42187;DHT22;27858;51.414;0.018;2022-08-19T04:54:30;19.30;99.90
42187;DHT22;27858;51.414;0.018;2022-08-19T04:57:08;19.50;99.90
42187;DHT22;27858;51.414;0.018;2022-08-19T04:59:38;19.40;99.90
42187;DHT22;27858;51.414;0.018;2022-08-19T05:02:06;19.50;99.90
42187;DHT22;27858;51.414;0.018;2022-08-19T05:04:33;19.30;99.90
42187;DHT22;27858;51.414;0.018;2022-08-19T05:07:00;19.30;99.90
42187;DHT22;27858;51.414;0.018;2022-08-19T05:09:29;19.30;99.90
42187;DHT22;27858;51.414;0.018;2022-08-19T05:12:16;19.20;99.90
42187;DHT22;27858;51.414;0.018;2022-08-19T05:14:44;19.30;99.90
42187;DHT22;27858;51.414;0.018;2022-08-19T05:17:12;19.30;99.90
42187;DHT22;27858;51.414;0.018;2022-08-19T05:19:58;19.40;99.90
42187;DHT22;27858;51.414;0.018;2022-08-19T05:22:45;19.40;99.90
42187;DHT22;27858;51.414;0.018;2022-08-19T05:25:16;19.20;99.90
42187;DHT22;27858;51.414;0.018;2022-08-19T05:27:45;19.20;99.90
42187;DHT22;27858;51.414;0.018;2022-08-19T05:30:12;19.30;99.90
42187;DHT22;27858;51.414;0.018;2022-08-19T05:32:40;19.30;99.90
42187;DHT22;27858;51.414;0.018;2022-08-19T05:35:07;19.20;99.90
42187;DHT22;27858;51.414;0.018;2022-08-19T05:37:34;19.10;99.90
42187;DHT22;27858;51.414;0.018;2022-08-19T05:40:02;19.20;99.90
42187;DHT22;27858;51.414;0.018;2022-08-19T05:42:29;19.20;99.90
42187;DHT22;27858;51.414;0.018;2022-08-19T05:44:57;19.00;99.90
42187;DHT22;27858;51.414;0.018;2022-08-19T05:47:24;19.10;99.90
42187;DHT22;27858;51.414;0.018;2022-08-19T05:49:51;19.20;99.90
42187;DHT22;27858;51.414;0.018;2022-08-19T05:52:19;19.20;99.90
42187;DHT22;27858;51.414;0.018;2022-08-19T05:54:52;19.20;99.90
42187;DHT22;27858;51.414;0.018;2022-08-19T05:57:21;19.10;99.90
42187;DHT22;27858;51.414;0.018;2022-08-19T05:59:48;19.30;99.90
42187;DHT22;27858;51.414;0.018;2022-08-19T06:02:27;19.10;99.90
42187;DHT22;27858;51.414;0.018;2022-08-19T06:04:55;19.20;99.90
42187;DHT22;27858;51.414;0.018;2022-08-19T06:07:22;19.20;99.90
42187;DHT22;27858;51.414;0.018;2022-08-19T06:09:49;19.20;99.90
42187;DHT22;27858;51.414;0.018;2022-08-19T06:12:28;19.30;99.90
42187;DHT22;27858;51.414;0.018;2022-08-19T06:14:58;19.50;99.90
42187;DHT22;27858;51.414;0.018;2022-08-19T06:17:28;19.40;99.90
42187;DHT22;27858;51.414;0.018;2022-08-19T06:19:57;19.30;99.90
42187;DHT22;27858;51.414;0.018;2022-08-19T06:22:24;19.40;99.90
42187;DHT22;27858;51.414;0.018;2022-08-19T06:24:51;19.40;99.90
42187;DHT22;27858;51.414;0.018;2022-08-19T06:27:21;19.40;99.90
42187;DHT22;27858;51.414;0.018;2022-08-19T06:29:48;19.50;99.90
42187;DHT22;27858;51.414;0.018;2022-08-19T06:32:16;19.50;99.90
42187;DHT22;27858;51.414;0.018;2022-08-19T06:34:44;19.50;99.90
42187;DHT22;27858;51.414;0.018;2022-08-19T06:37:11;19.40;99.90
42187;DHT22;27858;51.414;0.018;2022-08-19T06:39:40;19.40;99.90
42187;DHT22;27858;51.414;0.018;2022-08-19T06:42:09;19.50;99.90
42187;DHT22;27858;51.414;0.018;2022-08-19T06:44:40;19.50;99.90
42187;DHT22;27858;51.414;0.018;2022-08-19T06:47:11;19.50;99.90
42187;DHT22;27858;51.414;0.018;2022-08-19T06:49:41;19.40;99.90
42187;DHT22;27858;51.414;0.018;2022-08-19T06:52:08;19.50;99.90
42187;DHT22;27858;51.414;0.018;2022-08-19T06:54:40;19.50;99.90
42187;DHT22;27858;51.414;0.018;2022-08-19T06:57:24;19.40;99.90
42187;DHT22;27858;51.414;0.018;2022-08-19T06:59:52;19.40;99.90
42187;DHT22;27858;51.414;0.018;2022-08-19T07:02:19;19.40;99.90
42187;DHT22;27858;51.414;0.018;2022-08-19T07:04:47;19.40;99.90
42187;DHT22;27858;51.414;0.018;2022-08-19T07:07:19;19.40;99.90
42187;DHT22;27858;51.414;0.018;2022-08-19T07:09:48;19.40;99.90
42187;DHT22;27858;51.414;0.018;2022-08-19T07:12:24;19.40;99.90
42187;DHT22;27858;51.414;0.018;2022-08-19T07:14:52;19.50;99.90
42187;DHT22;27858;51.414;0.018;2022-08-19T07:17:20;19.40;99.90
42187;DHT22;27858;51.414;0.018;2022-08-19T07:19:47;19.40;99.90
42187;DHT22;27858;51.414;0.018;2022-08-19T07:22:14;19.50;99.90
42187;DHT22;27858;51.414;0.018;2022-08-19T07:24:43;19.50;99.90
42187;DHT22;27858;51.414;0.018;2022-08-19T07:27:17;19.50;99.90
42187;DHT22;27858;51.414;0.018;2022-08-19T07:29:51;19.60;99.90
42187;DHT22;27858;51.414;0.018;2022-08-19T07:32:23;19.50;99.90
42187;DHT22;27858;51.414;0.018;2022-08-19T07:34:53;19.60;99.90
42187;DHT22;27858;51.414;0.018;2022-08-19T07:37:23;19.60;99.90
42187;DHT22;27858;51.414;0.018;2022-08-19T07:39:54;19.60;99.90
42187;DHT22;27858;51.414;0.018;2022-08-19T07:42:21;19.70;99.90
42187;DHT22;27858;51.414;0.018;2022-08-19T07:44:48;19.70;99.90
42187;DHT22;27858;51.414;0.018;2022-08-19T07:47:17;19.80;99.90
42187;DHT22;27858;51.414;0.018;2022-08-19T07:50:07;19.80;99.90
42187;DHT22;27858;51.414;0.018;2022-08-19T07:52:35;20.00;99.90
42187;DHT22;27858;51.414;0.018;2022-08-19T07:55:05;20.00;99.90
42187;DHT22;27858;51.414;0.018;2022-08-19T07:57:52;20.20;99.90
42187;DHT22;27858;51.414;0.018;2022-08-19T08:00:20;20.30;87.70
42187;DHT22;27858;51.414;0.018;2022-08-19T08:02:50;20.30;44.40
42187;DHT22;27858;51.414;0.018;2022-08-19T08:05:21;20.30;62.00
42187;DHT22;27858;51.414;0.018;2022-08-19T08:08:10;20.40;79.20
42187;DHT22;27858;51.414;0.018;2022-08-19T08:10:56;20.50;74.40
42187;DHT22;27858;51.414;0.018;2022-08-19T08:13:24;20.50;77.50
42187;DHT22;27858;51.414;0.018;2022-08-19T08:15:52;20.40;64.50
42187;DHT22;27858;51.414;0.018;2022-08-19T08:18:25;20.40;71.30
42187;DHT22;27858;51.414;0.018;2022-08-19T08:20:56;20.50;88.10
42187;DHT22;27858;51.414;0.018;2022-08-19T08:23:24;20.60;89.50
42187;DHT22;27858;51.414;0.018;2022-08-19T08:25:57;20.60;96.10
42187;DHT22;27858;51.414;0.018;2022-08-19T08:28:26;20.80;99.90
42187;DHT22;27858;51.414;0.018;2022-08-19T08:30:59;20.80;61.90
42187;DHT22;27858;51.414;0.018;2022-08-19T08:33:28;20.80;65.00
42187;DHT22;27858;51.414;0.018;2022-08-19T08:36:04;20.80;60.30
42187;DHT22;27858;51.414;0.018;2022-08-19T08:38:31;20.70;53.90
42187;DHT22;27858;51.414;0.018;2022-08-19T08:41:13;20.80;49.90
42187;DHT22;27858;51.414;0.018;2022-08-19T08:43:48;20.70;52.00
42187;DHT22;27858;51.414;0.018;2022-08-19T08:51:48;20.90;46.00
42187;DHT22;27858;51.414;0.018;2022-08-19T08:54:32;20.80;52.10
42187;DHT22;27858;51.414;0.018;2022-08-19T08:57:01;20.80;60.10
42187;DHT22;27858;51.414;0.018;2022-08-19T08:59:35;20.90;32.10
42187;DHT22;27858;51.414;0.018;2022-08-19T09:02:03;20.90;29.40
42187;DHT22;27858;51.414;0.018;2022-08-19T09:04:30;20.90;36.00
42187;DHT22;27858;51.414;0.018;2022-08-19T09:16:20;20.40;17.20
42187;DHT22;27858;51.414;0.018;2022-08-19T09:19:05;20.60;1.00
42187;DHT22;27858;51.414;0.018;2022-08-19T09:21:34;20.90;1.00
42187;DHT22;27858;51.414;0.018;2022-08-19T09:24:06;21.10;1.00
42187;DHT22;27858;51.414;0.018;2022-08-19T09:26:33;21.10;1.00
42187;DHT22;27858;51.414;0.018;2022-08-19T09:29:18;21.20;1.00
42187;DHT22;27858;51.414;0.018;2022-08-19T09:31:48;21.40;1.00
42187;DHT22;27858;51.414;0.018;2022-08-19T09:34:16;21.30;1.00
42187;DHT22;27858;51.414;0.018;2022-08-19T09:36:48;21.30;1.00
42187;DHT22;27858;51.414;0.018;2022-08-19T09:39:21;21.30;1.00
42187;DHT22;27858;51.414;0.018;2022-08-19T09:41:48;21.30;1.00
42187;DHT22;27858;51.414;0.018;2022-08-19T09:44:17;21.50;1.00
42187;DHT22;27858;51.414;0.018;2022-08-19T09:46:44;21.60;1.00
42187;DHT22;27858;51.414;0.018;2022-08-19T09:49:15;21.70;1.00
42187;DHT22;27858;51.414;0.018;2022-08-19T09:51:44;21.80;1.00
42187;DHT22;27858;51.414;0.018;2022-08-19T09:54:17;21.90;1.00
42187;DHT22;27858;51.414;0.018;2022-08-19T09:56:51;21.90;1.00
42187;DHT22;27858;51.414;0.018;2022-08-19T09:59:18;21.90;1.00
42187;DHT22;27858;51.414;0.018;2022-08-19T10:01:45;22.00;1.00
42187;DHT22;27858;51.414;0.018;2022-08-19T10:04:12;22.00;1.00
42187;DHT22;27858;51.414;0.018;2022-08-19T10:06:50;22.00;1.00
42187;DHT22;27858;51.414;0.018;2022-08-19T10:09:20;22.20;1.00
42187;DHT22;27858;51.414;0.018;2022-08-19T10:12:01;22.30;1.00
42187;DHT22;27858;51.414;0.018;2022-08-19T10:14:29;22.20;1.00
42187;DHT22;27858;51.414;0.018;2022-08-19T10:16:56;22.30;1.00
42187;DHT22;27858;51.414;0.018;2022-08-19T10:19:25;22.30;1.00
42187;DHT22;27858;51.414;0.018;2022-08-19T10:21:53;22.30;1.00
42187;DHT22;27858;51.414;0.018;2022-08-19T10:24:26;22.40;99.90
42187;DHT22;27858;51.414;0.018;2022-08-19T10:26:55;22.20;1.00
42187;DHT22;27858;51.414;0.018;2022-08-19T10:29:26;22.20;99.90
42187;DHT22;27858;51.414;0.018;2022-08-19T10:32:00;22.20;1.00
42187;DHT22;27858;51.414;0.018;2022-08-19T10:34:30;22.00;1.00
42187;DHT22;27858;51.414;0.018;2022-08-19T10:36:58;22.10;1.00
42187;DHT22;27858;51.414;0.018;2022-08-19T10:39:32;21.80;1.00
42187;DHT22;27858;51.414;0.018;2022-08-19T10:42:09;21.70;1.00
42187;DHT22;27858;51.414;0.018;2022-08-19T10:44:40;21.80;1.00
42187;DHT22;27858;51.414;0.018;2022-08-19T10:47:08;21.60;1.00
42187;DHT22;27858;51.414;0.018;2022-08-19T10:49:51;21.40;1.00
42187;DHT22;27858;51.414;0.018;2022-08-19T10:52:41;21.40;1.00
42187;DHT22;27858;51.414;0.018;2022-08-19T10:55:18;21.60;1.00
42187;DHT22;27858;51.414;0.018;2022-08-19T10:58:09;21.60;1.00
42187;DHT22;27858;51.414;0.018;2022-08-19T11:00:36;21.70;1.00
42187;DHT22;27858;51.414;0.018;2022-08-19T11:03:03;21.70;1.00
42187;DHT22;27858;51.414;0.018;2022-08-19T11:05:30;21.80;1.00
42187;DHT22;27858;51.414;0.018;2022-08-19T11:08:05;21.90;1.00
42187;DHT22;27858;51.414;0.018;2022-08-19T11:10:50;21.80;1.00
42187;DHT22;27858;51.414;0.018;2022-08-19T11:13:17;21.60;1.00
42187;DHT22;27858;51.414;0.018;2022-08-19T11:15:45;21.50;1.00
42187;DHT22;27858;51.414;0.018;2022-08-19T11:18:12;21.60;1.00
42187;DHT22;27858;51.414;0.018;2022-08-19T11:20:39;21.80;1.00
42187;DHT22;27858;51.414;0.018;2022-08-19T11:23:06;21.90;1.00
42187;DHT22;27858;51.414;0.018;2022-08-19T11:25:33;22.00;1.00
42187;DHT22;27858;51.414;0.018;2022-08-19T11:28:02;21.90;1.00
42187;DHT22;27858;51.414;0.018;2022-08-19T11:30:29;22.00;1.00
42187;DHT22;27858;51.414;0.018;2022-08-19T11:32:56;22.10;1.00
42187;DHT22;27858;51.414;0.018;2022-08-19T11:35:23;22.10;1.00
42187;DHT22;27858;51.414;0.018;2022-08-19T11:37:51;22.30;99.90
42187;DHT22;27858;51.414;0.018;2022-08-19T11:40:18;22.20;99.90
42187;DHT22;27858;51.414;0.018;2022-08-19T11:42:58;22.20;99.90
42187;DHT22;27858;51.414;0.018;2022-08-19T11:45:30;22.10;99.90
42187;DHT22;27858;51.414;0.018;2022-08-19T11:47:57;22.50;99.90
42187;DHT22;27858;51.414;0.018;2022-08-19T11:50:24;22.40;99.90
42187;DHT22;27858;51.414;0.018;2022-08-19T11:52:54;22.30;99.90
42187;DHT22;27858;51.414;0.018;2022-08-19T11:55:22;22.20;99.90
42187;DHT22;27858;51.414;0.018;2022-08-19T11:57:49;22.20;99.90
42187;DHT22;27858;51.414;0.018;2022-08-19T12:00:16;22.30;99.90
42187;DHT22;27858;51.414;0.018;2022-08-19T12:02:43;22.20;99.90
42187;DHT22;27858;51.414;0.018;2022-08-19T12:05:10;22.20;99.90
42187;DHT22;27858;51.414;0.018;2022-08-19T12:07:39;22.40;99.90
42187;DHT22;27858;51.414;0.018;2022-08-19T12:10:06;22.40;99.90
42187;DHT22;27858;51.414;0.018;2022-08-19T12:12:34;22.50;99.90
42187;DHT22;27858;51.414;0.018;2022-08-19T12:15:01;22.60;99.90
42187;DHT22;27858;51.414;0.018;2022-08-19T12:17:28;22.60;99.90
42187;DHT22;27858;51.414;0.018;2022-08-19T12:19:57;22.70;99.90
42187;DHT22;27858;51.414;0.018;2022-08-19T12:22:24;22.90;99.90
42187;DHT22;27858;51.414;0.018;2022-08-19T12:24:51;22.80;99.90
42187;DHT22;27858;51.414;0.018;2022-08-19T12:27:20;22.80;99.90
42187;DHT22;27858;51.414;0.018;2022-08-19T12:30:09;22.70;99.90
42187;DHT22;27858;51.414;0.018;2022-08-19T12:32:37;22.90;99.90
42187;DHT22;27858;51.414;0.018;2022-08-19T12:35:05;23.00;99.90
42187;DHT22;27858;51.414;0.018;2022-08-19T12:37:32;22.90;99.90
42187;DHT22;27858;51.414;0.018;2022-08-19T12:39:59;22.90;99.90
42187;DHT22;27858;51.414;0.018;2022-08-19T12:42:26;22.70;99.90
42187;DHT22;27858;51.414;0.018;2022-08-19T12:44:53;22.50;99.90
42187;DHT22;27858;51.414;0.018;2022-08-19T12:47:20;22.50;99.90
42187;DHT22;27858;51.414;0.018;2022-08-19T12:49:48;22.50;99.90
42187;DHT22;27858;51.414;0.018;2022-08-19T12:52:25;22.50;99.90
42187;DHT22;27858;51.414;0.018;2022-08-19T12:54:55;22.40;99.90
42187;DHT22;27858;51.414;0.018;2022-08-19T12:57:23;22.40;99.90
42187;DHT22;27858;51.414;0.018;2022-08-19T13:02:31;22.90;99.90
42187;DHT22;27858;51.414;0.018;2022-08-19T13:05:06;23.10;99.90
42187;DHT22;27858;51.414;0.018;2022-08-19T13:07:35;23.40;99.90
42187;DHT22;27858;51.414;0.018;2022-08-19T13:10:02;23.40;99.90
42187;DHT22;27858;51.414;0.018;2022-08-19T13:12:29;23.30;99.90
42187;DHT22;27858;51.414;0.018;2022-08-19T13:14:56;23.30;99.90
42187;DHT22;27858;51.414;0.018;2022-08-19T13:17:24;23.60;99.90
42187;DHT22;27858;51.414;0.018;2022-08-19T13:19:50;23.60;99.90
42187;DHT22;27858;51.414;0.018;2022-08-19T13:22:18;23.60;99.90
42187;DHT22;27858;51.414;0.018;2022-08-19T13:24:45;23.70;99.90
42187;DHT22;27858;51.414;0.018;2022-08-19T13:27:13;23.90;99.90
42187;DHT22;27858;51.414;0.018;2022-08-19T13:29:43;24.30;99.90
42187;DHT22;27858;51.414;0.018;2022-08-19T13:32:29;23.90;99.90
42187;DHT22;27858;51.414;0.018;2022-08-19T13:35:16;23.90;99.90
42187;DHT22;27858;51.414;0.018;2022-08-19T13:37:44;24.10;99.90
42187;DHT22;27858;51.414;0.018;2022-08-19T13:40:17;24.40;99.90
42187;DHT22;27858;51.414;0.018;2022-08-19T13:42:48;24.40;99.90
42187;DHT22;27858;51.414;0.018;2022-08-19T13:45:16;24.90;99.90
42187;DHT22;27858;51.414;0.018;2022-08-19T13:47:46;25.00;99.90
42187;DHT22;27858;51.414;0.018;2022-08-19T13:50:17;25.20;99.90
42187;DHT22;27858;51.414;0.018;2022-08-19T13:52:44;25.40;99.90
42187;DHT22;27858;51.414;0.018;2022-08-19T13:55:12;25.70;99.90
42187;DHT22;27858;51.414;0.018;2022-08-19T13:57:39;26.00;99.90
42187;DHT22;27858;51.414;0.018;2022-08-19T14:00:14;26.20;99.90
42187;DHT22;27858;51.414;0.018;2022-08-19T14:02:41;26.60;99.90
42187;DHT22;27858;51.414;0.018;2022-08-19T14:05:11;27.00;99.90
42187;DHT22;27858;51.414;0.018;2022-08-19T14:07:39;27.10;99.90
42187;DHT22;27858;51.414;0.018;2022-08-19T14:10:08;26.40;99.90
42187;DHT22;27858;51.414;0.018;2022-08-19T14:12:36;25.60;99.90
42187;DHT22;27858;51.414;0.018;2022-08-19T14:15:05;25.90;99.90
42187;DHT22;27858;51.414;0.018;2022-08-19T14:17:32;25.70;99.90
42187;DHT22;27858;51.414;0.018;2022-08-19T14:20:03;26.20;99.90
42187;DHT22;27858;51.414;0.018;2022-08-19T14:22:38;26.30;99.90
42187;DHT22;27858;51.414;0.018;2022-08-19T14:25:09;26.20;99.90
42187;DHT22;27858;51.414;0.018;2022-08-19T14:27:37;26.20;99.90
42187;DHT22;27858;51.414;0.018;2022-08-19T14:30:09;26.10;99.90
42187;DHT22;27858;51.414;0.018;2022-08-19T14:32:36;25.80;99.90
42187;DHT22;27858;51.414;0.018;2022-08-19T14:35:04;25.80;99.90
42187;DHT22;27858;51.414;0.018;2022-08-19T14:37:33;26.20;99.90
42187;DHT22;27858;51.414;0.018;2022-08-19T14:40:12;25.70;99.90
42187;DHT22;27858;51.414;0.018;2022-08-19T14:42:39;26.50;99.90
42187;DHT22;27858;51.414;0.018;2022-08-19T14:45:08;26.90;99.90
42187;DHT22;27858;51.414;0.018;2022-08-19T14:47:36;27.00;99.90
42187;DHT22;27858;51.414;0.018;2022-08-19T14:50:12;27.40;99.90
42187;DHT22;27858;51.414;0.018;2022-08-19T14:52:45;27.70;99.90
42187;DHT22;27858;51.414;0.018;2022-08-19T14:55:16;28.10;99.90
42187;DHT22;27858;51.414;0.018;2022-08-19T14:57:44;28.10;99.90
42187;DHT22;27858;51.414;0.018;2022-08-19T15:00:12;28.00;99.90
42187;DHT22;27858;51.414;0.018;2022-08-19T15:02:40;27.80;99.90
42187;DHT22;27858;51.414;0.018;2022-08-19T15:05:08;28.60;99.90
42187;DHT22;27858;51.414;0.018;2022-08-19T15:07:36;28.60;99.90
42187;DHT22;27858;51.414;0.018;2022-08-19T15:10:04;29.20;99.90
42187;DHT22;27858;51.414;0.018;2022-08-19T15:12:38;29.70;99.90
42187;DHT22;27858;51.414;0.018;2022-08-19T15:15:19;29.70;99.90
42187;DHT22;27858;51.414;0.018;2022-08-19T15:17:52;29.60;99.90
42187;DHT22;27858;51.414;0.018;2022-08-19T15:20:20;30.10;99.90
42187;DHT22;27858;51.414;0.018;2022-08-19T15:22:48;29.30;99.90
42187;DHT22;27858;51.414;0.018;2022-08-19T15:25:16;29.10;99.90
42187;DHT22;27858;51.414;0.018;2022-08-19T15:27:45;28.60;99.90
42187;DHT22;27858;51.414;0.018;2022-08-19T15:30:17;28.80;99.90
42187;DHT22;27858;51.414;0.018;2022-08-19T15:32:44;28.70;99.90
42187;DHT22;27858;51.414;0.018;2022-08-19T15:35:14;28.40;99.90
42187;DHT22;27858;51.414;0.018;2022-08-19T15:37:45;29.10;99.90
42187;DHT22;27858;51.414;0.018;2022-08-19T15:40:24;28.40;99.90
42187;DHT22;27858;51.414;0.018;2022-08-19T15:42:58;27.70;99.90
42187;DHT22;27858;51.414;0.018;2022-08-19T15:45:26;27.60;99.90
42187;DHT22;27858;51.414;0.018;2022-08-19T15:48:08;27.50;99.90
42187;DHT22;27858;51.414;0.018;2022-08-19T15:50:40;27.10;99.90
42187;DHT22;27858;51.414;0.018;2022-08-19T15:53:21;27.00;99.90
42187;DHT22;27858;51.414;0.018;2022-08-19T15:55:52;26.90;99.90
42187;DHT22;27858;51.414;0.018;2022-08-19T15:58:25;27.10;99.90
42187;DHT22;27858;51.414;0.018;2022-08-19T16:01:10;27.30;99.90
42187;DHT22;27858;51.414;0.018;2022-08-19T16:04:00;27.70;99.90
42187;DHT22;27858;51.414;0.018;2022-08-19T16:06:48;27.80;99.90
42187;DHT22;27858;51.414;0.018;2022-08-19T16:09:17;27.60;99.90
42187;DHT22;27858;51.414;0.018;2022-08-19T16:11:54;27.70;99.90
42187;DHT22;27858;51.414;0.018;2022-08-19T16:14:28;28.00;99.90